Terminal Aerodrome Forecast
Issued by NWS Charleston, WV

Current Version | Previous Version | Graphics & Text | Print | Product List | Glossary On
Versions: 1 2 3 4 5 6 7 8 9 10 11 12 13 14 15 16 17 18 19 20
000
FTUS41 KRLX 241700 RRA
TAFPKB
TAF
KPKB 241741Z 2418/2518 24018G40KT P6SM BKN045
     FM242000 24012G28KT P6SM BKN060
     FM250000 24010G18KT P6SM BKN035
     FM250600 23008KT P6SM SCT045
     FM251400 24007KT P6SM SCT250
     FM251700 24007G15KT P6SM SCT050=

USA.gov is the U.S. government's official web portal to all federal, state and local government web resources and services.